createdAt,value
2023-03-24T00:00:18.440Z,99123.44
2023-03-24T00:03:05.938Z,99130.34
2023-03-24T00:05:35.168Z,99126.75
2023-03-24T00:08:05.254Z,99120.28
2023-03-24T00:10:42.273Z,99119.28
2023-03-24T00:13:14.060Z,99117.56
2023-03-24T00:15:41.123Z,99119.34
2023-03-24T00:18:10.837Z,99116.16
2023-03-24T00:20:37.908Z,99106.88
2023-03-24T00:23:05.172Z,99108.53
2023-03-24T00:25:40.242Z,99108.31
2023-03-24T00:28:07.760Z,99106.03
2023-03-24T00:30:35.212Z,99111.72
2023-03-24T00:33:07.032Z,99107.81
2023-03-24T00:35:34.383Z,99109.50
2023-03-24T00:38:01.586Z,99104.91
2023-03-24T00:40:28.440Z,99106.91
2023-03-24T00:42:55.777Z,99105.03
2023-03-24T00:45:25.651Z,99089.63
2023-03-24T00:47:58.259Z,99081.31
2023-03-24T00:50:28.767Z,99073.34
2023-03-24T00:52:56.502Z,99062.47
2023-03-24T00:55:23.638Z,99062.41
2023-03-24T00:57:51.365Z,99067.03
2023-03-24T01:00:21.219Z,99073.34
2023-03-24T01:02:53.666Z,99063.63
2023-03-24T01:05:25.799Z,99053.25
2023-03-24T01:07:56.506Z,99066.78
2023-03-24T01:10:26.876Z,99054.63
2023-03-24T01:12:58.728Z,99051.22
2023-03-24T01:15:28.068Z,99054.41
2023-03-24T01:17:56.103Z,99052.22
2023-03-24T01:20:23.848Z,99056.50
2023-03-24T01:22:51.502Z,99060.53
2023-03-24T01:25:20.097Z,99056.28
2023-03-24T01:27:48.364Z,99053.09
2023-03-24T01:30:18.059Z,99056.22
2023-03-24T01:32:45.442Z,99048.06
2023-03-24T01:35:12.865Z,99040.47
2023-03-24T01:37:42.582Z,99036.41
2023-03-24T01:40:11.191Z,99035.69
2023-03-24T01:42:39.588Z,99037.34
2023-03-24T01:45:26.140Z,99034.59
2023-03-24T01:47:53.422Z,99029.78
2023-03-24T01:50:20.455Z,99030.34
2023-03-24T01:52:51.146Z,99026.13
2023-03-24T01:55:19.999Z,99019.97
2023-03-24T01:57:51.697Z,99014.41
2023-03-24T02:00:21.651Z,99007.19
2023-03-24T02:03:10.192Z,99009.63
2023-03-24T02:05:47.142Z,99007.94
2023-03-24T02:08:22.110Z,99006.28
2023-03-24T02:10:49.466Z,99007.03
2023-03-24T02:13:16.839Z,99009.41
2023-03-24T02:15:53.392Z,98999.41
2023-03-24T02:18:45.215Z,99005.31
2023-03-24T02:21:30.900Z,99008.78
2023-03-24T02:24:07.497Z,99010.03
2023-03-24T02:26:37.539Z,99011.50
2023-03-24T02:29:17.041Z,99012.44
2023-03-24T02:31:56.500Z,99010.34
2023-03-24T02:34:43.339Z,99018.28
2023-03-24T02:37:22.309Z,99018.59
2023-03-24T02:39:55.678Z,99012.13
2023-03-24T02:42:43.946Z,99005.84
2023-03-24T02:45:17.817Z,99002.88
2023-03-24T02:48:03.350Z,98998.00
2023-03-24T02:50:31.368Z,98999.09
2023-03-24T02:53:09.801Z,98991.88
2023-03-24T02:56:04.722Z,98992.34
2023-03-24T02:58:38.086Z,98999.72
2023-03-24T03:01:08.867Z,98997.28
2023-03-24T03:04:37.223Z,98997.56
2023-03-24T03:07:12.939Z,99003.44
2023-03-24T03:09:47.852Z,98999.50
2023-03-24T03:12:16.204Z,98996.19
2023-03-24T03:14:49.002Z,98992.47
2023-03-24T03:17:20.906Z,98994.44
2023-03-24T03:19:52.659Z,98992.94
2023-03-24T03:22:23.320Z,98985.69
2023-03-24T03:24:53.114Z,98987.75
2023-03-24T03:27:27.242Z,98981.81
2023-03-24T03:30:06.136Z,98991.84
2023-03-24T03:32:36.086Z,98986.72
2023-03-24T03:35:19.821Z,98979.38
2023-03-24T03:37:50.547Z,98982.72
2023-03-24T03:40:26.192Z,98979.91
2023-03-24T03:42:59.718Z,98977.09
2023-03-24T03:45:26.819Z,98977.44
2023-03-24T03:47:54.439Z,98977.63
2023-03-24T03:50:22.258Z,98977.84
2023-03-24T03:52:50.155Z,98970.09
2023-03-24T03:55:17.197Z,98973.75
2023-03-24T03:57:44.783Z,98976.69
2023-03-24T04:00:50.912Z,98975.56
2023-03-24T04:03:56.697Z,98976.53
2023-03-24T04:06:36.157Z,98971.53
2023-03-24T04:09:24.332Z,98981.53
2023-03-24T04:11:51.352Z,98981.13
2023-03-24T04:14:41.253Z,98981.47
2023-03-24T04:17:46.367Z,98983.56
2023-03-24T04:20:34.480Z,98992.28
2023-03-24T04:23:14.554Z,98985.81
2023-03-24T04:26:06.253Z,98988.75
2023-03-24T04:28:39.752Z,98992.22
2023-03-24T04:31:27.236Z,98992.22
2023-03-24T04:34:03.219Z,98998.91
2023-03-24T04:36:42.253Z,98996.28
2023-03-24T04:39:40.842Z,98997.75
2023-03-24T04:42:28.163Z,98993.72
2023-03-24T04:44:57.663Z,98985.25
2023-03-24T04:47:48.426Z,98977.84
2023-03-24T04:50:40.286Z,98970.56
2023-03-24T04:53:13.695Z,98969.78
2023-03-24T04:55:50.878Z,98964.41
2023-03-24T04:58:41.802Z,98947.75
2023-03-24T05:01:09.269Z,98949.00
2023-03-24T05:03:39.203Z,98941.63
2023-03-24T05:06:07.746Z,98932.56
2023-03-24T05:08:35.498Z,98935.88
2023-03-24T05:11:02.744Z,98939.19
2023-03-24T05:13:32.523Z,98942.50
2023-03-24T05:16:02.041Z,98939.00
2023-03-24T05:18:35.116Z,98937.63
2023-03-24T05:21:02.952Z,98923.25
2023-03-24T05:23:30.493Z,98923.78
2023-03-24T05:25:58.436Z,98921.41
2023-03-24T05:28:28.110Z,98927.91
2023-03-24T05:30:55.748Z,98933.75
2023-03-24T05:33:42.073Z,98932.78
2023-03-24T05:36:13.105Z,98942.28
2023-03-24T05:38:44.128Z,98944.03
2023-03-24T05:41:11.427Z,98947.81
2023-03-24T05:43:42.428Z,98945.81
2023-03-24T05:46:15.112Z,98947.31
2023-03-24T05:48:43.799Z,98944.78
2023-03-24T05:51:12.899Z,98925.59
2023-03-24T05:53:42.808Z,98919.34
2023-03-24T05:56:14.439Z,98920.31
2023-03-24T05:59:00.429Z,98919.06
2023-03-24T06:01:53.446Z,98916.47
2023-03-24T06:04:30.676Z,98903.31
2023-03-24T06:07:04.100Z,98900.94
2023-03-24T06:09:35.978Z,98897.22
2023-03-24T06:12:06.514Z,98900.19
2023-03-24T06:14:39.224Z,98900.94
2023-03-24T06:17:15.149Z,98905.00
2023-03-24T06:19:50.360Z,98902.25
2023-03-24T06:22:37.520Z,98900.00
2023-03-24T06:25:09.954Z,98880.94
2023-03-24T06:27:38.106Z,98877.22
2023-03-24T06:30:08.712Z,98881.09
2023-03-24T06:32:39.050Z,98882.19
2023-03-24T06:35:07.387Z,98879.78
2023-03-24T06:37:44.847Z,98892.38
2023-03-24T06:40:16.400Z,98902.03
2023-03-24T06:42:50.646Z,98898.69
2023-03-24T06:45:18.018Z,98899.03
2023-03-24T06:47:47.048Z,98894.97
2023-03-24T06:50:14.415Z,98887.53
2023-03-24T06:52:41.996Z,98886.59
2023-03-24T06:55:11.994Z,98889.38
2023-03-24T06:57:39.327Z,98899.19
2023-03-24T07:00:29.444Z,98900.06
2023-03-24T07:03:10.543Z,98903.00
2023-03-24T07:05:41.545Z,98896.81
2023-03-24T07:08:33.971Z,98896.50
2023-03-24T07:10:59.770Z,98903.28
2023-03-24T07:13:26.714Z,98899.34
2023-03-24T07:16:01.482Z,98907.84
2023-03-24T07:18:28.836Z,98902.13
2023-03-24T07:21:00.922Z,98899.47
2023-03-24T07:23:28.755Z,98904.84
2023-03-24T07:26:15.997Z,98911.78
2023-03-24T07:28:43.051Z,98911.78
2023-03-24T07:31:12.333Z,98910.31
2023-03-24T07:33:43.262Z,98912.28
2023-03-24T07:36:10.855Z,98911.06
2023-03-24T07:38:39.929Z,98915.28
2023-03-24T07:41:11.740Z,98908.00
2023-03-24T07:43:43.364Z,98905.28
2023-03-24T07:46:24.693Z,98907.03
2023-03-24T07:48:52.313Z,98909.50
2023-03-24T07:51:20.141Z,98913.97
2023-03-24T07:53:59.497Z,98903.44
2023-03-24T07:56:33.504Z,98906.06
2023-03-24T07:59:02.081Z,98900.16
2023-03-24T08:01:47.830Z,98903.22
2023-03-24T08:04:16.262Z,98905.19
2023-03-24T08:07:10.133Z,98909.38
2023-03-24T08:09:37.093Z,98904.91
2023-03-24T08:12:10.291Z,98901.94
2023-03-24T08:14:46.749Z,98900.59
2023-03-24T08:17:16.510Z,98903.72
2023-03-24T08:19:58.517Z,98893.69
2023-03-24T08:22:27.346Z,98899.31
2023-03-24T08:24:54.221Z,98900.78
2023-03-24T08:27:21.552Z,98892.09
2023-03-24T08:29:48.512Z,98898.84
2023-03-24T08:32:16.095Z,98898.75
2023-03-24T08:34:43.137Z,98896.22
2023-03-24T08:37:12.166Z,98908.75
2023-03-24T08:39:39.105Z,98887.25
2023-03-24T08:42:06.751Z,98884.63
2023-03-24T08:44:33.699Z,98877.34
2023-03-24T08:47:01.401Z,98887.97
2023-03-24T08:49:30.719Z,98882.50
2023-03-24T08:52:00.548Z,98877.72
2023-03-24T08:54:27.897Z,98893.03
2023-03-24T08:56:55.131Z,98898.97
2023-03-24T08:59:24.268Z,98906.47
2023-03-24T09:01:51.902Z,98906.22
2023-03-24T09:04:21.896Z,98905.34
2023-03-24T09:06:50.083Z,98907.34
2023-03-24T09:09:17.062Z,98902.44
2023-03-24T09:11:46.831Z,98908.69
2023-03-24T09:14:13.829Z,98906.09
2023-03-24T09:16:44.022Z,98906.88
2023-03-24T09:19:11.169Z,98919.19
2023-03-24T09:21:38.546Z,98917.69
2023-03-24T09:24:07.878Z,98923.03
2023-03-24T09:26:35.224Z,98915.31
2023-03-24T09:29:02.760Z,98921.09
2023-03-24T09:31:30.016Z,98925.69
2023-03-24T09:33:56.964Z,98926.50
2023-03-24T09:36:24.292Z,98925.44
2023-03-24T09:38:51.482Z,98918.47
2023-03-24T09:41:21.233Z,98918.19
2023-03-24T09:43:52.398Z,98923.06
2023-03-24T09:46:30.703Z,98925.91
2023-03-24T09:48:58.046Z,98919.94
2023-03-24T09:51:42.815Z,98925.31
2023-03-24T09:54:18.626Z,98914.28
2023-03-24T09:56:48.040Z,98904.13
2023-03-24T09:59:20.116Z,98912.06
2023-03-24T10:01:50.285Z,98904.59
2023-03-24T10:04:19.461Z,98911.53
2023-03-24T10:06:53.332Z,98912.47
2023-03-24T10:09:28.688Z,98905.50
2023-03-24T10:11:59.122Z,98903.69
2023-03-24T10:14:26.071Z,98899.91
2023-03-24T10:16:56.409Z,98885.72
2023-03-24T10:19:43.631Z,98897.09
2023-03-24T10:22:16.938Z,98893.75
2023-03-24T10:24:44.824Z,98885.09
2023-03-24T10:27:18.070Z,98888.34
2023-03-24T10:29:48.204Z,98889.44
2023-03-24T10:32:19.887Z,98883.50
2023-03-24T10:34:48.862Z,98884.91
2023-03-24T10:37:17.579Z,98883.53
2023-03-24T10:39:47.135Z,98881.69
2023-03-24T10:42:25.692Z,98875.28
2023-03-24T10:44:52.837Z,98876.50
2023-03-24T10:47:24.332Z,98874.47
2023-03-24T10:49:58.504Z,98882.28
2023-03-24T10:52:29.499Z,98872.75
2023-03-24T10:55:04.719Z,98871.25
2023-03-24T10:57:32.869Z,98875.59
2023-03-24T11:00:02.185Z,98873.53
2023-03-24T11:02:31.137Z,98875.88
2023-03-24T11:04:58.337Z,98867.13
2023-03-24T11:07:30.175Z,98865.78
2023-03-24T11:10:03.198Z,98868.47
2023-03-24T11:12:34.759Z,98863.03
2023-03-24T11:15:21.222Z,98863.59
2023-03-24T11:17:58.730Z,98856.47
2023-03-24T11:20:31.011Z,98856.13
2023-03-24T11:23:02.967Z,98863.13
2023-03-24T11:25:34.263Z,98860.78
2023-03-24T11:28:05.466Z,98855.59
2023-03-24T11:30:45.629Z,98852.91
2023-03-24T11:33:20.861Z,98848.47
2023-03-24T11:36:06.613Z,98846.66
2023-03-24T11:38:34.851Z,98847.25
2023-03-24T11:41:04.993Z,98840.53
2023-03-24T11:43:32.602Z,98840.41
2023-03-24T11:46:02.571Z,98831.47
2023-03-24T11:48:41.677Z,98834.06
2023-03-24T11:51:12.591Z,98834.53
2023-03-24T11:53:46.947Z,98824.75
2023-03-24T11:56:17.254Z,98833.56
2023-03-24T11:58:50.946Z,98827.78
2023-03-24T12:01:17.961Z,98828.88
2023-03-24T12:03:51.908Z,98830.38
2023-03-24T12:06:28.405Z,98819.84
2023-03-24T12:09:14.669Z,98828.41
2023-03-24T12:11:51.073Z,98822.31
2023-03-24T12:14:37.076Z,98823.16
2023-03-24T12:17:11.582Z,98818.63
2023-03-24T12:19:50.376Z,98820.81
2023-03-24T12:22:21.317Z,98816.41
2023-03-24T12:24:54.945Z,98824.84
2023-03-24T12:27:42.157Z,98829.63
2023-03-24T12:30:15.753Z,98827.44
2023-03-24T12:32:59.808Z,98805.88
2023-03-24T12:35:43.353Z,98812.25
2023-03-24T12:38:51.427Z,98808.72
2023-03-24T12:41:37.078Z,98814.91
2023-03-24T12:44:22.748Z,98815.22
2023-03-24T12:47:01.765Z,98814.09
2023-03-24T12:49:31.325Z,98818.03
2023-03-24T12:52:17.676Z,98812.16
2023-03-24T12:54:53.235Z,98809.25
2023-03-24T12:57:24.910Z,98813.66
2023-03-24T12:59:51.764Z,98809.97
2023-03-24T13:02:34.305Z,98803.59
2023-03-24T13:05:08.584Z,98804.97
2023-03-24T13:07:39.908Z,98804.09
2023-03-24T13:10:16.508Z,98811.34
2023-03-24T13:12:53.083Z,98804.97
2023-03-24T13:15:26.364Z,98799.88
2023-03-24T13:17:56.660Z,98806.13
2023-03-24T13:20:34.157Z,98794.44
2023-03-24T13:23:31.463Z,98795.38
2023-03-24T13:26:10.757Z,98789.22
2023-03-24T13:28:47.963Z,98785.88
2023-03-24T13:31:19.808Z,98784.78
2023-03-24T13:33:48.404Z,98787.44
2023-03-24T13:36:33.684Z,98791.88
2023-03-24T13:39:12.571Z,98793.75
2023-03-24T13:41:39.865Z,98804.63
2023-03-24T13:44:17.932Z,98800.69
2023-03-24T13:46:59.239Z,98803.72
2023-03-24T13:49:26.632Z,98808.47
2023-03-24T13:51:53.622Z,98807.03
2023-03-24T13:54:22.734Z,98794.03
2023-03-24T13:56:53.904Z,98790.84
2023-03-24T13:59:25.658Z,98786.72
2023-03-24T14:02:11.556Z,98790.44
2023-03-24T14:04:46.457Z,98782.75
2023-03-24T14:07:33.187Z,98773.19
2023-03-24T14:10:02.502Z,98774.28
2023-03-24T14:12:32.750Z,98775.16
2023-03-24T14:15:23.548Z,98775.66
2023-03-24T14:17:56.613Z,98760.13
2023-03-24T14:20:34.796Z,98783.25
2023-03-24T14:23:03.573Z,98775.06
2023-03-24T14:25:32.262Z,98771.38
2023-03-24T14:28:19.876Z,98775.31
2023-03-24T14:31:00.305Z,98780.47
2023-03-24T14:33:28.843Z,98786.59
2023-03-24T14:36:05.031Z,98791.59
2023-03-24T14:38:36.747Z,98786.81
2023-03-24T14:41:09.121Z,98789.63
2023-03-24T14:43:56.349Z,98792.69
2023-03-24T14:46:37.317Z,98804.75
2023-03-24T14:49:26.156Z,98792.41
2023-03-24T14:52:12.590Z,98792.63
2023-03-24T14:54:58.265Z,98790.19
2023-03-24T14:57:26.976Z,98790.66
2023-03-24T15:00:29.628Z,98794.28
2023-03-24T15:03:02.913Z,98789.91
2023-03-24T15:05:31.079Z,98791.16
2023-03-24T15:08:16.879Z,98801.25
2023-03-24T15:10:48.532Z,98799.59
2023-03-24T15:13:30.911Z,98799.78
2023-03-24T15:15:58.290Z,98801.34
2023-03-24T15:18:26.169Z,98803.03
2023-03-24T15:20:53.500Z,98807.38
2023-03-24T15:23:22.290Z,98807.09
2023-03-24T15:25:52.652Z,98812.47
2023-03-24T15:28:26.739Z,98810.59
2023-03-24T15:30:56.284Z,98816.94
2023-03-24T15:33:26.261Z,98811.78
2023-03-24T15:35:57.449Z,98825.72
2023-03-24T15:38:31.537Z,98826.00
2023-03-24T15:41:03.606Z,98836.75
2023-03-24T15:43:31.187Z,98848.22
2023-03-24T15:46:11.789Z,98848.78
2023-03-24T15:48:40.038Z,98845.28
2023-03-24T15:51:09.373Z,98846.25
2023-03-24T15:53:41.731Z,98841.81
2023-03-24T15:56:26.569Z,98844.56
2023-03-24T15:58:55.139Z,98849.94
2023-03-24T16:01:39.391Z,98837.00
2023-03-24T16:04:17.589Z,98838.41
2023-03-24T16:06:53.572Z,98834.38
2023-03-24T16:09:22.322Z,98839.19
2023-03-24T16:11:49.605Z,98825.31
2023-03-24T16:14:23.093Z,98831.16
2023-03-24T16:16:55.512Z,98832.13
2023-03-24T16:19:23.143Z,98821.06
2023-03-24T16:21:50.020Z,98823.38
2023-03-24T16:24:17.359Z,98812.16
2023-03-24T16:26:44.231Z,98807.56
2023-03-24T16:29:17.119Z,98810.00
2023-03-24T16:31:45.299Z,98811.72
2023-03-24T16:34:12.553Z,98814.78
2023-03-24T16:36:39.470Z,98812.81
2023-03-24T16:39:13.315Z,98814.53
2023-03-24T16:41:40.329Z,98813.53
2023-03-24T16:44:07.522Z,98810.69
2023-03-24T16:46:35.514Z,98800.16
2023-03-24T16:49:04.592Z,98808.34
2023-03-24T16:51:34.399Z,98812.88
2023-03-24T16:54:05.483Z,98808.41
2023-03-24T16:56:32.967Z,98799.22
2023-03-24T16:59:00.396Z,98793.53
2023-03-24T17:01:33.842Z,98793.00
2023-03-24T17:04:09.799Z,98782.84
2023-03-24T17:06:38.307Z,98771.13
2023-03-24T17:09:06.122Z,98780.84
2023-03-24T17:11:36.933Z,98784.63
2023-03-24T17:14:05.814Z,98782.81
2023-03-24T17:16:36.790Z,98785.06
2023-03-24T17:19:07.374Z,98777.84
2023-03-24T17:21:37.299Z,98788.81
2023-03-24T17:24:07.050Z,98791.44
2023-03-24T17:26:37.746Z,98785.69
2023-03-24T17:29:05.361Z,98782.91
2023-03-24T17:31:33.190Z,98792.91
2023-03-24T17:34:08.480Z,98787.34
2023-03-24T17:36:49.913Z,98782.91
2023-03-24T17:39:17.888Z,98789.63
2023-03-24T17:41:45.290Z,98795.53
2023-03-24T17:44:12.956Z,98798.88
2023-03-24T17:46:44.736Z,98790.34
2023-03-24T17:49:12.663Z,98796.81
2023-03-24T17:51:40.011Z,98802.41
2023-03-24T17:54:08.023Z,98807.97
2023-03-24T17:56:35.904Z,98818.22
2023-03-24T17:59:05.295Z,98810.25
2023-03-24T18:01:35.708Z,98812.28
2023-03-24T18:04:03.996Z,98814.00
2023-03-24T18:06:31.362Z,98820.84
2023-03-24T18:08:59.000Z,98826.06
2023-03-24T18:11:26.689Z,98806.25
2023-03-24T18:13:58.660Z,98825.56
2023-03-24T18:16:30.633Z,98828.72
2023-03-24T18:18:58.756Z,98818.00
2023-03-24T18:21:27.660Z,98808.72
2023-03-24T18:23:56.702Z,98796.13
2023-03-24T18:26:24.295Z,98800.63
2023-03-24T18:28:55.574Z,98811.97
2023-03-24T18:31:26.522Z,98814.75
2023-03-24T18:33:55.120Z,98819.41
2023-03-24T18:36:27.835Z,98819.22
2023-03-24T18:38:58.972Z,98826.84
2023-03-24T18:41:30.772Z,98824.44
2023-03-24T18:43:59.742Z,98823.69
2023-03-24T18:46:27.481Z,98798.47
2023-03-24T18:48:55.801Z,98805.53
2023-03-24T18:51:34.158Z,98825.03
2023-03-24T18:54:02.801Z,98820.41
2023-03-24T18:56:30.661Z,98834.88
2023-03-24T18:58:58.668Z,98843.56
2023-03-24T19:01:26.634Z,98851.94
2023-03-24T19:03:57.267Z,98858.06
2023-03-24T19:06:26.678Z,98848.22
2023-03-24T19:08:56.093Z,98841.75
2023-03-24T19:11:24.454Z,98837.47
2023-03-24T19:13:57.020Z,98833.22
2023-03-24T19:16:24.962Z,98830.81
2023-03-24T19:18:56.730Z,98820.81
2023-03-24T19:21:29.614Z,98818.41
2023-03-24T19:23:57.800Z,98818.25
2023-03-24T19:26:34.210Z,98816.75
2023-03-24T19:29:09.200Z,98821.59
2023-03-24T19:31:39.159Z,98816.72
2023-03-24T19:34:09.351Z,98817.84
2023-03-24T19:36:37.036Z,98811.53
2023-03-24T19:39:05.316Z,98819.88
2023-03-24T19:41:33.918Z,98818.63
2023-03-24T19:44:02.493Z,98812.88
2023-03-24T19:46:30.656Z,98808.25
2023-03-24T19:49:01.554Z,98814.38
2023-03-24T19:51:29.398Z,98808.44
2023-03-24T19:53:59.751Z,98802.91
2023-03-24T19:56:30.451Z,98800.13
2023-03-24T19:58:59.004Z,98800.84
2023-03-24T20:01:35.632Z,98804.19
2023-03-24T20:04:03.702Z,98812.53
2023-03-24T20:06:31.918Z,98813.84
2023-03-24T20:09:05.133Z,98821.25
2023-03-24T20:11:33.594Z,98826.63
2023-03-24T20:14:01.838Z,98834.59
2023-03-24T20:16:29.728Z,98829.03
2023-03-24T20:18:58.148Z,98834.41
2023-03-24T20:21:30.585Z,98840.72
2023-03-24T20:24:06.936Z,98838.69
2023-03-24T20:26:35.428Z,98845.16
2023-03-24T20:29:04.843Z,98842.94
2023-03-24T20:31:34.061Z,98832.00
2023-03-24T20:34:02.452Z,98836.47
2023-03-24T20:36:30.244Z,98828.31
2023-03-24T20:39:00.290Z,98823.50
2023-03-24T20:41:28.968Z,98814.78
2023-03-24T20:43:58.168Z,98818.88
2023-03-24T20:46:30.681Z,98813.13
2023-03-24T20:48:59.065Z,98809.06
2023-03-24T20:51:28.969Z,98809.22
2023-03-24T20:53:58.812Z,98800.16
2023-03-24T20:56:28.493Z,98812.72
2023-03-24T20:58:56.788Z,98799.34
2023-03-24T21:01:24.880Z,98795.59
2023-03-24T21:03:58.263Z,98795.38
2023-03-24T21:06:33.374Z,98793.50
2023-03-24T21:09:05.189Z,98795.19
2023-03-24T21:11:35.850Z,98789.63
2023-03-24T21:14:06.290Z,98785.19
2023-03-24T21:16:34.240Z,98797.78
2023-03-24T21:19:05.116Z,98792.94
2023-03-24T21:21:33.528Z,98782.22
2023-03-24T21:24:02.563Z,98774.03
2023-03-24T21:26:30.388Z,98769.06
2023-03-24T21:28:58.365Z,98770.56
2023-03-24T21:31:26.873Z,98775.00
2023-03-24T21:33:55.118Z,98767.78
2023-03-24T21:36:23.206Z,98768.88
2023-03-24T21:38:53.995Z,98760.72
2023-03-24T21:41:23.170Z,98762.25
2023-03-24T21:43:54.700Z,98747.19
2023-03-24T21:46:22.527Z,98740.75
2023-03-24T21:48:55.848Z,98744.06
2023-03-24T21:51:24.759Z,98741.06
2023-03-24T21:53:56.056Z,98736.97
2023-03-24T21:56:25.784Z,98742.88
2023-03-24T21:58:54.216Z,98762.91
2023-03-24T22:01:21.479Z,98769.94
2023-03-24T22:03:50.774Z,98765.44
2023-03-24T22:06:17.954Z,98757.44
2023-03-24T22:08:48.863Z,98775.44
2023-03-24T22:11:18.525Z,98762.25
2023-03-24T22:13:46.714Z,98779.88
2023-03-24T22:16:14.145Z,98795.28
2023-03-24T22:18:43.664Z,98806.44
2023-03-24T22:21:12.729Z,98800.72
2023-03-24T22:23:42.713Z,98795.94
2023-03-24T22:26:11.493Z,98791.13
2023-03-24T22:28:38.804Z,98786.13
2023-03-24T22:31:07.560Z,98787.09
2023-03-24T22:33:34.833Z,98796.13
2023-03-24T22:36:07.185Z,98775.19
2023-03-24T22:38:34.900Z,98783.31
2023-03-24T22:41:05.933Z,98791.84
2023-03-24T22:43:33.501Z,98786.81
2023-03-24T22:46:00.478Z,98776.78
2023-03-24T22:48:30.108Z,98791.06
2023-03-24T22:50:57.122Z,98792.75
2023-03-24T22:53:24.481Z,98782.00
2023-03-24T22:55:52.190Z,98784.56
2023-03-24T22:58:19.741Z,98791.41
2023-03-24T23:00:50.023Z,98786.03
2023-03-24T23:03:17.436Z,98805.13
2023-03-24T23:05:45.919Z,98798.97
2023-03-24T23:08:15.235Z,98811.94
2023-03-24T23:10:45.518Z,98812.66
2023-03-24T23:13:12.744Z,98813.59
2023-03-24T23:15:39.952Z,98816.16
2023-03-24T23:18:07.393Z,98819.50
2023-03-24T23:20:34.594Z,98816.91
2023-03-24T23:23:02.787Z,98823.19
2023-03-24T23:25:30.719Z,98828.03
2023-03-24T23:27:58.316Z,98823.75
2023-03-24T23:30:25.318Z,98829.34
2023-03-24T23:32:53.020Z,98812.84
2023-03-24T23:35:20.241Z,98815.41
2023-03-24T23:37:48.432Z,98819.91
2023-03-24T23:40:15.957Z,98821.97
2023-03-24T23:42:47.297Z,98817.53
2023-03-24T23:45:15.413Z,98817.91
2023-03-24T23:47:47.015Z,98810.53
2023-03-24T23:50:17.603Z,98822.22
2023-03-24T23:52:44.973Z,98813.34
2023-03-24T23:55:12.839Z,98811.50
2023-03-24T23:57:42.654Z,98807.63
